createdAt,value
2019-04-03T00:00:16.431Z,8.60
2019-04-03T00:02:45.758Z,8.60
2019-04-03T00:05:16.461Z,8.50
2019-04-03T00:07:45.760Z,8.50
2019-04-03T00:10:15.329Z,8.50
2019-04-03T00:12:44.633Z,8.40
2019-04-03T00:15:14.311Z,8.30
2019-04-03T00:17:45.286Z,8.30
2019-04-03T00:20:14.737Z,8.20
2019-04-03T00:22:46.094Z,8.20
2019-04-03T00:25:16.181Z,8.10
2019-04-03T00:27:45.897Z,8.10
2019-04-03T00:30:15.537Z,8.00
2019-04-03T00:32:44.846Z,8.00
2019-04-03T00:35:14.313Z,7.90
2019-04-03T00:37:43.621Z,7.90
2019-04-03T00:40:13.368Z,7.90
2019-04-03T00:42:42.847Z,7.90
2019-04-03T00:45:12.969Z,7.80
2019-04-03T00:47:42.281Z,7.80
2019-04-03T00:50:12.018Z,7.90
2019-04-03T00:52:41.418Z,7.90
2019-04-03T00:55:10.849Z,7.90
2019-04-03T00:57:40.278Z,7.90
2019-04-03T01:00:14.742Z,7.90
2019-04-03T01:02:45.162Z,7.80
2019-04-03T01:05:14.643Z,7.70
2019-04-03T01:07:44.095Z,7.70
2019-04-03T01:10:13.516Z,7.70
2019-04-03T01:12:42.817Z,7.80
2019-04-03T01:15:12.389Z,7.80
2019-04-03T01:17:41.691Z,7.80
2019-04-03T01:20:11.131Z,7.70
2019-04-03T01:22:40.584Z,7.80
2019-04-03T01:25:09.962Z,7.80
2019-04-03T01:27:41.092Z,7.80
2019-04-03T01:30:10.402Z,7.80
2019-04-03T01:32:39.755Z,7.80
2019-04-03T01:35:09.728Z,7.70
2019-04-03T01:37:39.170Z,7.70
2019-04-03T01:40:08.460Z,7.60
2019-04-03T01:42:37.776Z,7.60
2019-04-03T01:45:07.408Z,7.50
2019-04-03T01:47:36.778Z,7.50
2019-04-03T01:50:07.334Z,7.50
2019-04-03T01:52:36.787Z,7.40
2019-04-03T01:55:07.564Z,7.40
2019-04-03T01:57:37.224Z,7.30
2019-04-03T02:00:08.114Z,7.30
2019-04-03T02:02:38.788Z,7.20
2019-04-03T02:05:08.942Z,7.20
2019-04-03T02:07:38.430Z,7.10
2019-04-03T02:10:18.395Z,7.00
2019-04-03T02:12:51.270Z,7.00
2019-04-03T02:15:21.710Z,6.90
2019-04-03T02:17:54.061Z,6.90
2019-04-03T02:20:22.381Z,6.90
2019-04-03T02:22:51.673Z,6.90
2019-04-03T02:25:20.972Z,6.90
2019-04-03T02:27:50.274Z,6.80
2019-04-03T02:30:22.885Z,6.60
2019-04-03T02:32:55.075Z,6.50
2019-04-03T02:35:23.191Z,6.40
2019-04-03T02:37:52.495Z,6.40
2019-04-03T02:40:21.960Z,6.40
2019-04-03T02:42:51.365Z,6.20
2019-04-03T02:45:24.009Z,6.20
2019-04-03T02:47:51.959Z,6.20
2019-04-03T02:50:24.864Z,6.20
2019-04-03T02:52:58.174Z,6.20
2019-04-03T02:55:26.210Z,6.30
2019-04-03T02:57:55.500Z,6.30
2019-04-03T03:00:24.830Z,6.30
2019-04-03T03:02:54.336Z,6.30
2019-04-03T03:05:26.816Z,6.20
2019-04-03T03:07:54.776Z,6.20
2019-04-03T03:10:25.060Z,6.20
2019-04-03T03:12:59.914Z,6.20
2019-04-03T03:15:27.908Z,6.10
2019-04-03T03:17:59.200Z,6.10
2019-04-03T03:20:30.157Z,6.00
2019-04-03T03:23:01.085Z,6.00
2019-04-03T03:25:33.600Z,6.10
2019-04-03T03:28:02.878Z,6.10
2019-04-03T03:30:43.383Z,6.10
2019-04-03T03:33:24.721Z,6.10
2019-04-03T03:35:41.363Z,6.10
2019-04-03T03:38:07.767Z,6.10
2019-04-03T03:40:37.852Z,6.20
2019-04-03T03:43:07.552Z,6.20
2019-04-03T03:45:37.275Z,6.30
2019-04-03T03:48:09.408Z,6.20
2019-04-03T03:50:38.454Z,6.30
2019-04-03T03:53:11.565Z,6.20
2019-04-03T03:55:39.945Z,6.30
2019-04-03T03:58:12.918Z,6.20
2019-04-03T04:00:42.348Z,6.30
2019-04-03T04:03:12.893Z,6.30
2019-04-03T04:05:42.195Z,6.30
2019-04-03T04:08:12.219Z,6.40
2019-04-03T04:10:43.768Z,6.30
2019-04-03T04:13:15.481Z,6.30
2019-04-03T04:15:46.215Z,6.30
2019-04-03T04:18:16.444Z,6.30
2019-04-03T04:20:45.998Z,6.40
2019-04-03T04:23:15.724Z,6.40
2019-04-03T04:25:45.610Z,6.40
2019-04-03T04:28:15.189Z,6.40
2019-04-03T04:30:46.644Z,6.40
2019-04-03T04:33:16.946Z,6.50
2019-04-03T04:35:47.133Z,6.50
2019-04-03T04:38:16.442Z,6.50
2019-04-03T04:40:45.941Z,6.50
2019-04-03T04:43:15.313Z,6.50
2019-04-03T04:45:44.608Z,6.60
2019-04-03T04:48:16.210Z,6.50
2019-04-03T04:50:45.088Z,6.60
2019-04-03T04:53:15.613Z,6.60
2019-04-03T04:56:04.793Z,6.60
2019-04-03T04:58:36.191Z,6.60
2019-04-03T05:01:05.640Z,6.60
2019-04-03T05:03:35.149Z,6.60
2019-04-03T05:06:04.576Z,6.60
2019-04-03T05:08:33.880Z,6.70
2019-04-03T05:11:07.307Z,6.80
2019-04-03T05:13:36.488Z,6.90
2019-04-03T05:16:05.954Z,6.90
2019-04-03T05:18:35.684Z,7.00
2019-04-03T05:21:05.416Z,7.00
2019-04-03T05:23:34.723Z,7.10
2019-04-03T05:26:04.319Z,7.00
2019-04-03T05:28:34.176Z,7.00
2019-04-03T05:31:04.165Z,7.00
2019-04-03T05:33:33.461Z,7.10
2019-04-03T05:36:02.760Z,7.10
2019-04-03T05:38:33.125Z,7.10
2019-04-03T05:41:02.639Z,7.20
2019-04-03T05:43:32.025Z,7.30
2019-04-03T05:46:01.316Z,7.30
2019-04-03T05:48:30.623Z,7.40
2019-04-03T05:51:00.051Z,7.40
2019-04-03T05:53:29.348Z,7.50
2019-04-03T05:55:58.644Z,7.50
2019-04-03T05:58:27.944Z,7.60
2019-04-03T06:01:04.328Z,7.70
2019-04-03T06:03:39.160Z,7.90
2019-04-03T06:05:59.248Z,7.90
2019-04-03T06:08:28.581Z,8.10
2019-04-03T06:10:57.881Z,8.10
2019-04-03T06:13:27.956Z,8.20
2019-04-03T06:15:57.324Z,8.30
2019-04-03T06:18:26.975Z,8.40
2019-04-03T06:20:56.397Z,8.50
2019-04-03T06:23:26.373Z,8.60
2019-04-03T06:25:56.095Z,8.80
2019-04-03T06:28:25.628Z,8.90
2019-04-03T06:30:56.440Z,9.00
2019-04-03T06:33:26.022Z,9.20
2019-04-03T06:35:55.360Z,9.30
2019-04-03T06:38:25.230Z,9.40
2019-04-03T06:40:54.661Z,9.60
2019-04-03T06:43:23.967Z,9.70
2019-04-03T06:45:53.322Z,9.80
2019-04-03T06:48:22.881Z,9.80
2019-04-03T06:50:52.871Z,9.90
2019-04-03T06:53:25.777Z,10.00
2019-04-03T06:55:53.207Z,10.00
2019-04-03T06:58:22.718Z,10.10
2019-04-03T07:00:54.405Z,10.20
2019-04-03T07:03:23.191Z,10.30
2019-04-03T07:05:52.637Z,10.40
2019-04-03T07:08:32.161Z,10.50
2019-04-03T07:10:55.573Z,10.50
2019-04-03T07:13:29.105Z,10.60
2019-04-03T07:15:57.595Z,10.70
2019-04-03T07:18:27.050Z,10.80
2019-04-03T07:20:56.388Z,10.90
2019-04-03T07:23:26.038Z,11.00
2019-04-03T07:25:55.540Z,11.20
2019-04-03T07:28:24.896Z,11.20
2019-04-03T07:30:54.489Z,11.20
2019-04-03T07:33:24.087Z,11.30
2019-04-03T07:35:53.712Z,11.30
2019-04-03T07:38:23.409Z,11.30
2019-04-03T07:40:52.870Z,11.30
2019-04-03T07:43:23.157Z,11.40
2019-04-03T07:45:52.456Z,11.40
2019-04-03T07:48:21.865Z,11.50
2019-04-03T07:50:51.245Z,11.40
2019-04-03T07:53:20.818Z,11.50
2019-04-03T07:55:50.576Z,11.50
2019-04-03T07:58:20.016Z,11.40
2019-04-03T08:00:49.513Z,11.40
2019-04-03T08:03:20.740Z,11.40
2019-04-03T08:05:49.901Z,11.50
2019-04-03T08:08:19.231Z,11.50
2019-04-03T08:10:48.611Z,11.50
2019-04-03T08:13:17.921Z,11.60
2019-04-03T08:15:47.220Z,11.50
2019-04-03T08:18:16.550Z,11.60
2019-04-03T08:20:46.191Z,11.50
2019-04-03T08:23:15.800Z,11.60
2019-04-03T08:25:48.071Z,11.60
2019-04-03T08:28:16.193Z,11.70
2019-04-03T08:30:45.728Z,11.70
2019-04-03T08:33:18.253Z,11.70
2019-04-03T08:35:46.507Z,11.60
2019-04-03T08:38:16.024Z,11.60
2019-04-03T08:40:46.312Z,11.50
2019-04-03T08:43:15.616Z,11.50
2019-04-03T08:45:44.922Z,11.60
2019-04-03T08:48:14.960Z,11.60
2019-04-03T08:50:45.244Z,11.60
2019-04-03T08:53:14.548Z,11.70
2019-04-03T08:55:45.840Z,11.70
2019-04-03T08:58:15.055Z,11.90
2019-04-03T09:00:44.352Z,12.10
2019-04-03T09:03:14.556Z,12.30
2019-04-03T09:05:45.818Z,12.40
2019-04-03T09:08:15.116Z,12.50
2019-04-03T09:10:44.426Z,12.40
2019-04-03T09:13:17.722Z,12.50
2019-04-03T09:15:45.456Z,12.60
2019-04-03T09:18:15.393Z,12.60
2019-04-03T09:20:44.701Z,12.70
2019-04-03T09:23:14.100Z,12.70
2019-04-03T09:25:44.372Z,12.80
2019-04-03T09:28:13.669Z,12.90
2019-04-03T09:30:43.378Z,12.80
2019-04-03T09:33:12.867Z,12.70
2019-04-03T09:35:43.239Z,12.70
2019-04-03T09:38:13.034Z,12.70
2019-04-03T09:40:43.409Z,12.70
2019-04-03T09:43:12.724Z,12.80
2019-04-03T09:45:42.019Z,12.90
2019-04-03T09:48:12.718Z,13.10
2019-04-03T09:50:42.231Z,13.20
2019-04-03T09:53:11.572Z,13.20
2019-04-03T09:55:40.900Z,13.30
2019-04-03T09:58:10.276Z,13.50
2019-04-03T10:00:41.260Z,13.70
2019-04-03T10:03:10.774Z,13.90
2019-04-03T10:05:40.101Z,14.20
2019-04-03T10:08:09.733Z,14.50
2019-04-03T10:10:40.242Z,14.70
2019-04-03T10:13:09.631Z,14.70
2019-04-03T10:15:39.362Z,14.50
2019-04-03T10:18:09.994Z,14.00
2019-04-03T10:20:40.079Z,13.70
2019-04-03T10:23:09.376Z,13.40
2019-04-03T10:25:39.008Z,13.50
2019-04-03T10:28:08.443Z,13.70
2019-04-03T10:30:38.784Z,13.80
2019-04-03T10:33:08.084Z,13.70
2019-04-03T10:35:39.330Z,13.70
2019-04-03T10:38:09.241Z,13.60
2019-04-03T10:40:38.631Z,13.50
2019-04-03T10:43:08.127Z,13.20
2019-04-03T10:45:37.516Z,13.00
2019-04-03T10:48:06.892Z,12.90
2019-04-03T10:50:37.545Z,13.00
2019-04-03T10:53:07.201Z,12.90
2019-04-03T10:55:36.833Z,13.00
2019-04-03T10:58:07.236Z,12.90
2019-04-03T11:00:37.272Z,13.00
2019-04-03T11:03:06.768Z,13.00
2019-04-03T11:05:36.144Z,13.10
2019-04-03T11:08:05.784Z,13.10
2019-04-03T11:10:35.660Z,13.10
2019-04-03T11:13:05.292Z,13.10
2019-04-03T11:15:34.843Z,13.10
2019-04-03T11:18:04.440Z,13.20
2019-04-03T11:20:36.088Z,13.50
2019-04-03T11:23:08.424Z,13.50
2019-04-03T11:25:41.567Z,13.40
2019-04-03T11:28:09.464Z,13.40
2019-04-03T11:30:38.760Z,13.40
2019-04-03T11:33:08.064Z,13.40
2019-04-03T11:35:37.575Z,13.50
2019-04-03T11:38:14.674Z,13.50
2019-04-03T11:40:37.942Z,13.60
2019-04-03T11:43:07.344Z,13.50
2019-04-03T11:45:38.521Z,13.30
2019-04-03T11:48:08.083Z,13.10
2019-04-03T11:50:39.459Z,13.10
2019-04-03T11:53:08.455Z,13.00
2019-04-03T11:55:37.980Z,13.00
2019-04-03T11:58:07.414Z,12.90
2019-04-03T12:00:42.279Z,12.90
2019-04-03T12:03:12.199Z,12.90
2019-04-03T12:05:41.664Z,12.90
2019-04-03T12:08:12.567Z,12.80
2019-04-03T12:10:42.292Z,12.80
2019-04-03T12:13:13.596Z,12.90
2019-04-03T12:15:42.602Z,12.90
2019-04-03T12:18:11.900Z,13.00
2019-04-03T12:20:43.971Z,13.10
2019-04-03T12:23:12.308Z,13.10
2019-04-03T12:25:41.684Z,13.10
2019-04-03T12:28:11.030Z,13.10
2019-04-03T12:30:40.399Z,13.10
2019-04-03T12:33:10.057Z,12.90
2019-04-03T12:35:42.242Z,12.60
2019-04-03T12:38:10.438Z,11.20
2019-04-03T12:40:40.042Z,10.30
2019-04-03T12:43:09.780Z,9.80
2019-04-03T12:45:39.117Z,9.40
2019-04-03T12:48:08.408Z,9.10
2019-04-03T12:50:37.847Z,8.90
2019-04-03T12:53:07.200Z,8.70
2019-04-03T12:55:36.500Z,8.40
2019-04-03T12:58:06.248Z,8.20
2019-04-03T13:00:36.019Z,8.00
2019-04-03T13:03:05.570Z,7.80
2019-04-03T13:05:37.763Z,7.60
2019-04-03T13:08:06.030Z,7.60
2019-04-03T13:10:41.828Z,7.60
2019-04-03T13:13:06.749Z,7.50
2019-04-03T13:15:37.118Z,7.50
2019-04-03T13:18:07.747Z,7.50
2019-04-03T13:20:37.663Z,7.50
2019-04-03T13:23:08.613Z,7.50
2019-04-03T13:25:38.802Z,7.70
2019-04-03T13:28:08.246Z,7.80
2019-04-03T13:30:37.920Z,7.90
2019-04-03T13:33:07.935Z,8.10
2019-04-03T13:35:38.896Z,8.30
2019-04-03T13:38:08.493Z,8.60
2019-04-03T13:40:38.974Z,9.60
2019-04-03T13:43:08.572Z,11.10
2019-04-03T13:45:38.124Z,11.50
2019-04-03T13:48:07.717Z,10.90
2019-04-03T13:50:38.176Z,10.60
2019-04-03T13:53:08.266Z,10.30
2019-04-03T13:55:40.174Z,10.20
2019-04-03T13:58:09.108Z,10.20
2019-04-03T14:00:38.539Z,10.10
2019-04-03T14:03:07.993Z,9.90
2019-04-03T14:05:37.421Z,10.10
2019-04-03T14:08:07.481Z,10.60
2019-04-03T14:10:37.376Z,11.50
2019-04-03T14:13:07.056Z,12.20
2019-04-03T14:15:36.789Z,13.10
2019-04-03T14:18:07.867Z,15.00
2019-04-03T14:20:37.176Z,17.40
2019-04-03T14:23:06.626Z,19.40
2019-04-03T14:25:38.024Z,20.60
2019-04-03T14:28:07.071Z,18.80
2019-04-03T14:30:37.336Z,17.50
2019-04-03T14:33:07.648Z,17.50
2019-04-03T14:35:48.725Z,16.50
2019-04-03T14:38:08.155Z,16.00
2019-04-03T14:40:37.466Z,14.40
2019-04-03T14:43:06.764Z,13.20
2019-04-03T14:45:38.676Z,12.30
2019-04-03T14:48:07.145Z,11.70
2019-04-03T14:50:37.690Z,11.60
2019-04-03T14:53:07.723Z,11.70
2019-04-03T14:55:47.011Z,12.10
2019-04-03T14:58:08.040Z,12.60
2019-04-03T15:00:37.339Z,13.10
2019-04-03T15:03:06.917Z,14.10
2019-04-03T15:05:39.315Z,15.10
2019-04-03T15:08:08.328Z,16.40
2019-04-03T15:10:37.642Z,16.80
2019-04-03T15:13:06.950Z,16.60
2019-04-03T15:15:37.062Z,16.90
2019-04-03T15:18:09.196Z,17.10
2019-04-03T15:20:38.936Z,16.90
2019-04-03T15:23:08.429Z,16.10
2019-04-03T15:25:37.811Z,15.30
2019-04-03T15:28:09.408Z,14.10
2019-04-03T15:30:41.715Z,13.40
2019-04-03T15:33:09.716Z,13.20
2019-04-03T15:35:39.231Z,13.60
2019-04-03T15:38:08.625Z,13.80
2019-04-03T15:40:37.973Z,13.70
2019-04-03T15:43:10.219Z,13.50
2019-04-03T15:45:38.295Z,13.30
2019-04-03T15:48:08.035Z,13.30
2019-04-03T15:50:38.542Z,13.20
2019-04-03T15:53:08.398Z,13.30
2019-04-03T15:55:39.361Z,13.10
2019-04-03T15:58:09.366Z,12.60
2019-04-03T16:00:39.416Z,12.60
2019-04-03T16:03:09.726Z,12.50
2019-04-03T16:05:39.024Z,12.40
2019-04-03T16:08:11.691Z,12.60
2019-04-03T16:10:39.424Z,12.70
2019-04-03T16:13:09.088Z,12.90
2019-04-03T16:15:39.986Z,13.30
2019-04-03T16:18:09.479Z,13.10
2019-04-03T16:20:39.138Z,12.80
2019-04-03T16:23:08.552Z,12.30
2019-04-03T16:25:38.093Z,12.10
2019-04-03T16:28:07.440Z,11.80
2019-04-03T16:30:36.744Z,11.60
2019-04-03T16:33:13.321Z,11.40
2019-04-03T16:35:37.498Z,11.20
2019-04-03T16:38:08.307Z,11.10
2019-04-03T16:40:38.851Z,10.90
2019-04-03T16:43:08.960Z,10.90
2019-04-03T16:45:39.240Z,10.90
2019-04-03T16:48:09.211Z,10.70
2019-04-03T16:50:38.556Z,10.60
2019-04-03T16:53:09.392Z,10.50
2019-04-03T16:55:38.777Z,10.50
2019-04-03T16:58:08.080Z,10.40
2019-04-03T17:00:38.081Z,10.30
2019-04-03T17:03:08.382Z,10.30
2019-04-03T17:05:37.677Z,10.30
2019-04-03T17:08:06.985Z,10.30
2019-04-03T17:10:36.292Z,10.40
2019-04-03T17:13:05.595Z,10.40
2019-04-03T17:15:35.751Z,10.40
2019-04-03T17:18:06.161Z,10.40
2019-04-03T17:20:35.598Z,10.40
2019-04-03T17:23:05.387Z,10.40
2019-04-03T17:25:45.782Z,10.30
2019-04-03T17:28:09.338Z,10.30
2019-04-03T17:30:37.421Z,10.20
2019-04-03T17:33:06.796Z,10.20
2019-04-03T17:35:36.470Z,10.20
2019-04-03T17:38:06.208Z,10.20
2019-04-03T17:40:36.485Z,10.20
2019-04-03T17:43:06.532Z,10.10
2019-04-03T17:45:37.624Z,10.00
2019-04-03T17:48:06.920Z,9.90
2019-04-03T17:50:36.224Z,9.90
2019-04-03T17:53:06.580Z,9.90
2019-04-03T17:55:37.372Z,9.80
2019-04-03T17:58:06.716Z,9.90
2019-04-03T18:00:36.181Z,9.90
2019-04-03T18:03:05.652Z,9.90
2019-04-03T18:05:35.220Z,10.00
2019-04-03T18:08:04.585Z,9.90
2019-04-03T18:10:34.371Z,9.90
2019-04-03T18:13:03.736Z,9.80
2019-04-03T18:15:33.103Z,9.70
2019-04-03T18:18:02.852Z,9.70
2019-04-03T18:20:32.792Z,9.70
2019-04-03T18:23:03.776Z,9.60
2019-04-03T18:25:33.068Z,9.60
2019-04-03T18:28:04.791Z,9.60
2019-04-03T18:30:36.413Z,9.60
2019-04-03T18:33:06.080Z,9.60
2019-04-03T18:35:35.564Z,9.60
2019-04-03T18:38:07.584Z,9.60
2019-04-03T18:40:37.196Z,9.60
2019-04-03T18:43:06.492Z,9.50
2019-04-03T18:45:35.796Z,9.50
2019-04-03T18:48:05.168Z,9.50
2019-04-03T18:50:35.128Z,9.50
2019-04-03T18:53:05.099Z,9.50
2019-04-03T18:55:34.881Z,9.50
2019-04-03T18:58:04.368Z,9.50
2019-04-03T19:00:33.699Z,9.50
2019-04-03T19:03:04.114Z,9.40
2019-04-03T19:05:34.056Z,9.40
2019-04-03T19:08:13.167Z,9.30
2019-04-03T19:10:34.376Z,9.30
2019-04-03T19:13:04.881Z,9.30
2019-04-03T19:15:34.211Z,9.20
2019-04-03T19:18:17.865Z,9.10
2019-04-03T19:20:35.641Z,9.10
2019-04-03T19:23:07.024Z,8.90
2019-04-03T19:25:37.129Z,8.80
2019-04-03T19:28:06.458Z,8.70
2019-04-03T19:30:36.075Z,8.60
2019-04-03T19:33:06.740Z,8.20
2019-04-03T19:35:36.827Z,7.80
2019-04-03T19:38:06.116Z,7.50
2019-04-03T19:40:35.420Z,7.40
2019-04-03T19:43:04.910Z,7.30
2019-04-03T19:45:34.193Z,7.10
2019-04-03T19:48:03.484Z,6.70
2019-04-03T19:50:32.792Z,6.40
2019-04-03T19:53:02.084Z,6.20
2019-04-03T19:55:31.548Z,6.10
2019-04-03T19:58:01.587Z,6.00
2019-04-03T20:00:30.875Z,5.90
2019-04-03T20:03:00.244Z,5.90
2019-04-03T20:05:29.565Z,5.80
2019-04-03T20:07:59.387Z,5.80
2019-04-03T20:10:28.836Z,5.80
2019-04-03T20:12:58.135Z,5.80
2019-04-03T20:15:27.427Z,5.80
2019-04-03T20:17:56.736Z,5.80
2019-04-03T20:20:26.034Z,5.90
2019-04-03T20:22:55.327Z,5.90
2019-04-03T20:25:24.888Z,5.90
2019-04-03T20:27:56.894Z,5.90
2019-04-03T20:30:25.252Z,5.90
2019-04-03T20:32:55.370Z,6.00
2019-04-03T20:35:24.672Z,5.90
2019-04-03T20:37:56.772Z,6.00
2019-04-03T20:40:25.032Z,5.90
2019-04-03T20:42:54.332Z,5.90
2019-04-03T20:45:23.621Z,6.00
2019-04-03T20:47:52.938Z,6.10
2019-04-03T20:50:22.220Z,6.10
2019-04-03T20:52:51.520Z,6.10
2019-04-03T20:55:20.808Z,6.10
2019-04-03T20:57:55.805Z,6.10
2019-04-03T21:00:40.453Z,6.20
2019-04-03T21:03:12.595Z,6.30
2019-04-03T21:05:40.769Z,6.20
2019-04-03T21:08:10.072Z,6.30
2019-04-03T21:10:41.080Z,6.30
2019-04-03T21:13:10.381Z,6.30
2019-04-03T21:15:39.672Z,6.10
2019-04-03T21:18:08.984Z,6.20
2019-04-03T21:20:38.280Z,6.10
2019-04-03T21:23:07.580Z,6.10
2019-04-03T21:25:36.900Z,6.10
2019-04-03T21:28:06.357Z,6.20
2019-04-03T21:30:35.769Z,6.20
2019-04-03T21:33:07.717Z,6.20
2019-04-03T21:35:37.012Z,6.10
2019-04-03T21:38:06.304Z,6.10
2019-04-03T21:40:35.600Z,6.10
2019-04-03T21:43:07.408Z,6.20
2019-04-03T21:45:38.405Z,6.20
2019-04-03T21:48:06.902Z,6.20
2019-04-03T21:50:37.620Z,6.20
2019-04-03T21:53:06.916Z,6.20
2019-04-03T21:55:36.291Z,6.10
2019-04-03T21:58:06.956Z,6.10
2019-04-03T22:00:58.618Z,6.10
2019-04-03T22:03:28.390Z,6.10
2019-04-03T22:05:57.694Z,6.00
2019-04-03T22:08:29.072Z,6.00
2019-04-03T22:10:58.256Z,6.10
2019-04-03T22:13:27.640Z,6.10
2019-04-03T22:15:56.936Z,6.10
2019-04-03T22:18:26.244Z,6.10
2019-04-03T22:20:55.561Z,6.00
2019-04-03T22:23:24.859Z,6.00
2019-04-03T22:25:55.055Z,6.00
2019-04-03T22:28:24.417Z,5.90
2019-04-03T22:30:54.688Z,5.90
2019-04-03T22:33:27.534Z,6.00
2019-04-03T22:35:55.431Z,5.90
2019-04-03T22:38:24.751Z,5.90
2019-04-03T22:40:54.045Z,5.90
2019-04-03T22:43:23.340Z,5.90
2019-04-03T22:45:53.621Z,5.80
2019-04-03T22:48:22.916Z,5.80
2019-04-03T22:50:52.212Z,5.80
2019-04-03T22:53:21.541Z,5.80
2019-04-03T22:55:50.899Z,5.80
2019-04-03T22:58:21.541Z,5.80
2019-04-03T23:00:51.970Z,5.80
2019-04-03T23:03:21.260Z,5.80
2019-04-03T23:05:50.615Z,5.80
2019-04-03T23:08:22.529Z,5.80
2019-04-03T23:10:50.904Z,5.80
2019-04-03T23:13:20.216Z,5.80
2019-04-03T23:15:49.528Z,5.80
2019-04-03T23:18:18.923Z,5.90
2019-04-03T23:20:48.223Z,5.80
2019-04-03T23:23:17.524Z,5.90
2019-04-03T23:25:46.824Z,5.90
2019-04-03T23:28:16.171Z,5.90
2019-04-03T23:30:45.480Z,6.00
2019-04-03T23:33:16.695Z,6.00
2019-04-03T23:35:46.875Z,6.00
2019-04-03T23:38:16.180Z,6.10
2019-04-03T23:40:45.475Z,6.10
2019-04-03T23:43:14.778Z,6.10
2019-04-03T23:45:44.279Z,6.00
2019-04-03T23:48:13.660Z,6.00
2019-04-03T23:50:42.962Z,6.00
2019-04-03T23:53:12.287Z,6.00
2019-04-03T23:55:41.608Z,5.90
2019-04-03T23:58:11.424Z,5.90
